Monday, February 19, 2018, 9:55 AM GMT
Back to Local

CWPE, Point Lepreau, N. B.

Location: , , Canada Lat: 45.067
Local Time: 9:55 AM GMT ( 9:55 GMT) Lon: -66.467
Time Zone: GMT Elev: 3 ft

Show me the last for .
Show Decoded

2018-02-19 09:00 METAR CWPE 190900Z AUTO 34002KT M08/M09 RMK AO1 SOG 02 2016 SLP338 T10771086 =
2018-02-19 08:00 METAR CWPE 190800Z AUTO 04002KT M05/M07 RMK AO1 SOG 03 3016 SLP333 T10491070 =
2018-02-19 07:00 METAR CWPE 190700Z AUTO 32005KT M04/M07 RMK AO1 SOG 03 3012 SLP327 T10351069 =
2018-02-19 06:00 METAR CWPE 190600Z AUTO 32005KT M03/M06 RMK AO1 SOG 03 1018 SLP322 T10251061 =
2018-02-19 05:00 METAR CWPE 190500Z AUTO 32006KT M03/M06 RMK AO1 SOG 03 1023 SLP317 T10261056 =
2018-02-19 04:00 METAR CWPE 190400Z AUTO 32006KT M01/M05 RMK AO1 SOG 03 3029 SLP315 T10141048 =
2018-02-19 03:00 METAR CWPE 190300Z AUTO 32005KT M01/M04 RMK AO1 SOG 03 1033 SLP304 T10111044 =
2018-02-19 02:00 METAR CWPE 190200Z AUTO 30005KT M00/M04 RMK AO1 SOG 03 1048 SLP294 T10041042 =
2018-02-19 01:00 METAR CWPE 190100Z AUTO 29004KT M00/M04 RMK AO1 SOG 03 3052 SLP286 T10031037 =
2018-02-19 00:00 METAR CWPE 190000Z AUTO 28004KT 01/M03 RMK AO1 PRESRR SOG 03 3053 SLP271
                 T00051027 =
2018-02-18 23:00 METAR CWPE 182300Z AUTO 34002KT M01/M02 RMK AO1 SOG 03 1044 SLP246 T10061023 =
2018-02-18 22:00 METAR CWPE 182200Z AUTO 31005KT 01/M02 RMK AO1 SOG 03 3044 SLP234 T00061024 =
2018-02-18 21:00 METAR CWPE 182100Z AUTO 32004KT 01/M02 RMK AO1 SOG 03 3035 SLP218 T00111020 =
2018-02-18 20:00 METAR CWPE 182000Z AUTO 32007KT 02/M01 RMK AO1 SOG 03 3026 SLP202 T00161012 =
2018-02-18 19:00 METAR CWPE 181900Z AUTO 27003KT 02/M00 RMK AO1 SOG 03 1024 SLP190 T00161003 =
2018-02-18 18:00 METAR CWPE 181800Z AUTO 30003KT 01/00 RMK AO1 SOG 03 3022 SLP183 T00080000 =
2018-02-18 17:00 METAR CWPE 181700Z AUTO 04003KT M00/M01 RMK AO1 SOG 04 3017 SLP176 T10031010 =
2018-02-18 16:00 METAR CWPE 181600Z AUTO 06006KT 00/M01 RMK AO1 SOG 04 3004 SLP166 T00001009 =
2018-02-18 15:00 METAR CWPE 181500Z AUTO 08008KT 01/M01 RMK AO1 SOG 04 5003 SLP161 T00051011 =
2018-02-18 14:00 METAR CWPE 181400Z AUTO 07005KT M01/M01 RMK AO1 SOG 04 8006 SLP159 T10101012 =
2018-02-18 13:00 METAR CWPE 181300Z AUTO 08005KT M01/M01 RMK AO1 17 SOG 04 6007 SLP162 T10131013
                 =
2018-02-18 12:00 METAR CWPE 181200Z AUTO 11011KT M01/M01 RMK AO1 SOG 03 6018 SLP164 T10141014 =
2018-02-18 11:00 METAR CWPE 181100Z AUTO 12012KT M02/M02 RMK AO1 20 SOG 02 6033 SLP165 T10171019
                 =
2018-02-18 10:00 METAR CWPE 181000Z AUTO 13014KT M01/M03 RMK AO1 21 0920Z SOG 02 6049 SLP169
                 T10061028 =

Support USWX by starting your Amazon purchase here.